Time;durP1;ratioP1;P1;durP2;ratioP2;P2;SDS_P1;SDS_P2;PMS_P1;PMS_P2;Temp;Humidity;BMP_temperature;BMP_pressure;BME280_temperature;BME280_humidity;BME280_pressure;Samples;Min_cycle;Max_cycle;Signal;HPM_P1;HPM_P2
2022/12/02 00:00:25;;;;;;;52.00;13.40;;;;;;;;;;4988090;28;20066;-89
2022/12/02 00:02:55;;;;;;;51.97;12.75;;;;;;;;;;5019470;28;20053;-89
2022/12/02 00:05:33;;;;;;;41.03;12.77;;;;;;;;;;5006990;28;20061;-89
2022/12/02 00:08:11;;;;;;;52.67;13.88;;;;;;;;;;4989486;28;21956;-90
2022/12/02 00:10:40;;;;;;;46.88;13.93;;;;;;;;;;5005552;28;20046;-89
2022/12/02 00:13:14;;;;;;;50.00;13.18;;;;;;;;;;5005688;28;20115;-90
2022/12/02 00:15:44;;;;;;;49.30;11.85;;;;;;;;;;4989257;28;20042;-88
2022/12/02 00:18:14;;;;;;;56.22;12.15;;;;;;;;;;5005212;28;20050;-89
2022/12/02 00:23:36;;;;;;;49.78;13.02;;;;;;;;;;5005717;28;20053;-89
2022/12/02 00:26:04;;;;;;;55.83;15.15;;;;;;;;;;4990220;28;20046;-89
2022/12/02 00:28:56;;;;;;;41.55;11.23;;;;;;;;;;5006655;28;20053;-89
2022/12/02 00:31:28;;;;;;;51.95;13.60;;;;;;;;;;5006560;28;20058;-88
2022/12/02 00:33:56;;;;;;;45.47;11.68;;;;;;;;;;4986113;28;20504;-88
2022/12/02 00:36:50;;;;;;;44.60;11.52;;;;;;;;;;5011686;28;20193;-89
2022/12/02 00:39:18;;;;;;;50.35;12.10;;;;;;;;;;5012203;28;20305;-88
2022/12/02 00:41:46;;;;;;;56.50;12.80;;;;;;;;;;4993691;28;20057;-88
2022/12/02 00:47:00;;;;;;;55.15;13.65;;;;;;;;;;5007877;28;20075;-88
2022/12/02 00:49:28;;;;;;;46.75;13.10;;;;;;;;;;5009801;28;20050;-87
2022/12/02 00:51:56;;;;;;;47.35;12.57;;;;;;;;;;4974264;28;20050;-88
2022/12/02 00:54:24;;;;;;;50.70;12.65;;;;;;;;;;4990674;28;20514;-88
2022/12/02 00:56:52;;;;;;;43.65;12.93;;;;;;;;;;4994243;28;20045;-88
2022/12/02 00:59:24;;;;;;;43.60;14.23;;;;;;;;;;5009723;28;20041;-87
2022/12/02 01:01:56;;;;;;;50.95;14.15;;;;;;;;;;5008150;28;20534;-87
2022/12/02 01:04:24;;;;;;;48.28;12.68;;;;;;;;;;5007651;28;20104;-87
2022/12/02 01:06:56;;;;;;;44.88;11.30;;;;;;;;;;5011439;28;20046;-88
2022/12/02 01:09:28;;;;;;;55.30;14.23;;;;;;;;;;5010345;28;20499;-88
2022/12/02 01:11:56;;;;;;;46.08;13.90;;;;;;;;;;4993438;28;20108;-87
2022/12/02 01:14:24;;;;;;;42.88;12.13;;;;;;;;;;5011457;28;20053;-88
2022/12/02 01:17:16;;;;;;;52.65;13.25;;;;;;;;;;5009114;28;20046;-88
2022/12/02 01:19:48;;;;;;;47.00;13.48;;;;;;;;;;5008373;28;20057;-87
2022/12/02 01:22:40;;;;;;;32.80;9.40;;;;;;;;;;5010721;28;20053;-87
2022/12/02 01:25:12;;;;;;;54.72;15.23;;;;;;;;;;5008323;28;20120;-88
2022/12/02 01:27:45;;;;;;;54.33;14.80;;;;;;;;;;4993922;28;20582;-88
2022/12/02 01:30:12;;;;;;;61.63;16.52;;;;;;;;;;5010200;28;20097;-87
2022/12/02 01:32:40;;;;;;;55.65;14.68;;;;;;;;;;5011059;28;20057;-88
2022/12/02 01:35:08;;;;;;;59.95;18.08;;;;;;;;;;4993512;28;20495;-87
2022/12/02 01:37:36;;;;;;;66.07;16.90;;;;;;;;;;5010483;28;20081;-88
2022/12/02 01:40:29;;;;;;;53.58;15.98;;;;;;;;;;5024133;28;20518;-88
2022/12/02 01:43:02;;;;;;;50.15;14.65;;;;;;;;;;5010244;28;20046;-89
2022/12/02 01:45:30;;;;;;;58.45;15.30;;;;;;;;;;5008887;28;20457;-89
2022/12/02 01:48:02;;;;;;;53.25;15.82;;;;;;;;;;5009227;28;20057;-88
2022/12/02 01:50:31;;;;;;;56.40;16.75;;;;;;;;;;4992282;28;20050;-89
2022/12/02 01:53:04;;;;;;;53.35;15.65;;;;;;;;;;5007671;28;20046;-88
2022/12/02 01:55:32;;;;;;;57.00;15.55;;;;;;;;;;5012587;28;20054;-88
2022/12/02 01:58:00;;;;;;;51.28;14.52;;;;;;;;;;4979744;28;20137;-88
2022/12/02 02:00:32;;;;;;;51.05;14.55;;;;;;;;;;4996307;28;20077;-88
2022/12/02 02:03:00;;;;;;;54.78;15.63;;;;;;;;;;5026554;28;20108;-88
2022/12/02 02:06:16;;;;;;;46.33;14.60;;;;;;;;;;5011772;28;20120;-88
2022/12/02 02:08:44;;;;;;;50.67;15.60;;;;;;;;;;4994555;28;20054;-89
2022/12/02 02:11:12;;;;;;;60.70;16.77;;;;;;;;;;4996276;28;20060;-88
2022/12/02 02:13:40;;;;;;;53.35;16.23;;;;;;;;;;4989546;28;20096;-89
2022/12/02 02:16:08;;;;;;;51.83;15.77;;;;;;;;;;4993322;28;20435;-88
2022/12/02 02:19:01;;;;;;;47.65;15.15;;;;;;;;;;5009706;28;20057;-88
2022/12/02 02:21:34;;;;;;;47.55;15.18;;;;;;;;;;4995014;28;20526;-88
2022/12/02 02:24:08;;;;;;;45.05;15.27;;;;;;;;;;4994056;28;20049;-88
2022/12/02 02:26:36;;;;;;;56.10;15.63;;;;;;;;;;4992287;28;20046;-88
2022/12/02 02:29:08;;;;;;;50.40;16.02;;;;;;;;;;5009550;28;20132;-88
2022/12/02 02:32:00;;;;;;;44.67;15.38;;;;;;;;;;5007670;28;20057;-89
2022/12/02 02:34:52;;;;;;;46.85;15.30;;;;;;;;;;4979715;28;20057;-89
2022/12/02 02:37:24;;;;;;;44.75;15.20;;;;;;;;;;4994057;28;20097;-89
2022/12/02 02:39:52;;;;;;;44.92;15.60;;;;;;;;;;5011632;28;20046;-88
2022/12/02 02:42:47;;;;;;;44.72;14.65;;;;;;;;;;5009319;28;20046;-88
2022/12/02 02:45:41;;;;;;;47.38;14.50;;;;;;;;;;4977876;28;20045;-88
2022/12/02 02:48:12;;;;;;;45.55;14.95;;;;;;;;;;4993863;28;20062;-88
2022/12/02 02:50:43;;;;;;;47.50;15.35;;;;;;;;;;4991770;28;20049;-88
2022/12/02 02:53:17;;;;;;;50.95;16.10;;;;;;;;;;5009559;28;20061;-89
2022/12/02 02:55:44;;;;;;;48.63;15.30;;;;;;;;;;4989725;28;20488;-88
2022/12/02 02:58:24;;;;;;;43.97;13.98;;;;;;;;;;4990879;28;20050;-88
2022/12/02 03:01:12;;;;;;;44.10;14.98;;;;;;;;;;5024243;28;20050;-88
2022/12/02 03:03:47;;;;;;;44.30;14.43;;;;;;;;;;4991471;28;20048;-88
2022/12/02 03:06:41;;;;;;;42.03;14.88;;;;;;;;;;5009760;28;20041;-88
2022/12/02 03:09:58;;;;;;;42.83;14.18;;;;;;;;;;5009016;28;20046;-88
2022/12/02 03:12:26;;;;;;;40.78;14.02;;;;;;;;;;4994956;28;20541;-88
2022/12/02 03:14:54;;;;;;;48.17;15.35;;;;;;;;;;4993028;28;20047;-88
2022/12/02 03:17:26;;;;;;;45.05;14.93;;;;;;;;;;5019085;28;20065;-88
2022/12/02 03:19:54;;;;;;;47.55;15.93;;;;;;;;;;4984596;28;20525;-89
2022/12/02 03:22:46;;;;;;;48.45;16.50;;;;;;;;;;5010351;28;20030;-88
2022/12/02 03:25:18;;;;;;;45.10;15.20;;;;;;;;;;5006602;28;20408;-88
2022/12/02 03:27:46;;;;;;;44.55;14.88;;;;;;;;;;5011297;28;20056;-89
2022/12/02 03:30:38;;;;;;;47.70;15.52;;;;;;;;;;5024237;28;20447;-88
2022/12/02 03:33:30;;;;;;;48.45;17.52;;;;;;;;;;4985192;28;20069;-88
2022/12/02 03:36:24;;;;;;;44.88;15.73;;;;;;;;;;5009533;28;20622;-89
2022/12/02 03:39:16;;;;;;;44.53;13.82;;;;;;;;;;4992367;28;20045;-88
2022/12/02 03:41:45;;;;;;;46.45;16.27;;;;;;;;;;5009312;28;20519;-88
2022/12/02 03:44:18;;;;;;;46.50;15.73;;;;;;;;;;4995542;28;20045;-88
2022/12/02 03:46:46;;;;;;;45.70;15.18;;;;;;;;;;4990488;28;20112;-88
2022/12/02 03:49:15;;;;;;;43.60;15.48;;;;;;;;;;5023375;28;20057;-88
2022/12/02 03:51:42;;;;;;;52.53;15.95;;;;;;;;;;4993398;28;20050;-88
2022/12/02 03:54:11;;;;;;;44.33;15.05;;;;;;;;;;4993891;28;20422;-88
2022/12/02 03:56:41;;;;;;;42.85;13.80;;;;;;;;;;4973246;28;20046;-88
2022/12/02 03:59:11;;;;;;;52.13;15.75;;;;;;;;;;4975767;28;20049;-88
2022/12/02 04:01:43;;;;;;;49.20;15.50;;;;;;;;;;5008620;28;20056;-88
2022/12/02 04:04:10;;;;;;;52.42;16.23;;;;;;;;;;5008256;28;20057;-88
2022/12/02 04:07:02;;;;;;;50.15;14.88;;;;;;;;;;4996236;28;20486;-89
2022/12/02 04:09:30;;;;;;;47.60;16.35;;;;;;;;;;5008526;28;20092;-87
2022/12/02 04:12:02;;;;;;;44.90;15.35;;;;;;;;;;5009306;28;20057;-88
2022/12/02 04:14:30;;;;;;;45.72;14.10;;;;;;;;;;5009751;28;20519;-88
2022/12/02 04:16:58;;;;;;;48.28;15.20;;;;;;;;;;4976697;28;20500;-88
2022/12/02 04:22:48;;;;;;;46.95;15.50;;;;;;;;;;5005004;28;20069;-88
2022/12/02 04:25:16;;;;;;;41.50;13.63;;;;;;;;;;5023439;28;20046;-89
2022/12/02 04:27:44;;;;;;;45.38;15.07;;;;;;;;;;4998831;28;20125;-88
2022/12/02 04:30:12;;;;;;;44.97;14.68;;;;;;;;;;4990591;28;20559;-88
2022/12/02 04:32:44;;;;;;;51.38;16.90;;;;;;;;;;5008739;28;20054;-88
2022/12/02 04:35:12;;;;;;;48.13;15.27;;;;;;;;;;4991515;28;20054;-88
2022/12/02 04:38:04;;;;;;;41.50;14.45;;;;;;;;;;4997041;28;20157;-88
2022/12/02 04:40:38;;;;;;;41.08;14.48;;;;;;;;;;5008990;28;20085;-87
2022/12/02 04:43:30;;;;;;;42.80;15.63;;;;;;;;;;5009831;28;20078;-88
2022/12/02 04:45:58;;;;;;;48.40;15.63;;;;;;;;;;5004954;28;20149;-88
2022/12/02 04:48:26;;;;;;;46.85;14.75;;;;;;;;;;5006411;28;20046;-88
2022/12/02 04:50:58;;;;;;;49.28;17.00;;;;;;;;;;5007595;28;20058;-88
2022/12/02 04:53:26;;;;;;;45.60;14.98;;;;;;;;;;4976462;28;20516;-88
2022/12/02 04:55:54;;;;;;;48.40;14.80;;;;;;;;;;5009290;28;20038;-88
2022/12/02 04:58:22;;;;;;;43.20;14.57;;;;;;;;;;4993208;28;20046;-88
2022/12/02 05:00:54;;;;;;;42.63;14.68;;;;;;;;;;4991806;28;20523;-88
2022/12/02 05:03:22;;;;;;;46.33;14.90;;;;;;;;;;4970683;28;20076;-88
2022/12/02 05:05:50;;;;;;;39.30;14.90;;;;;;;;;;4991756;28;20046;-88
2022/12/02 05:08:18;;;;;;;40.47;14.40;;;;;;;;;;4982921;28;20149;-88
2022/12/02 05:10:46;;;;;;;45.65;16.73;;;;;;;;;;5006162;28;20431;-88
2022/12/02 05:13:14;;;;;;;44.28;14.13;;;;;;;;;;5006854;28;20038;-88
2022/12/02 05:15:42;;;;;;;41.20;14.40;;;;;;;;;;4976155;28;20073;-88
2022/12/02 05:18:10;;;;;;;41.53;13.40;;;;;;;;;;5006999;28;20060;-88
2022/12/02 05:20:38;;;;;;;41.13;14.23;;;;;;;;;;5001459;28;20046;-87
2022/12/02 05:23:30;;;;;;;49.83;14.30;;;;;;;;;;4996026;28;20045;-88
2022/12/02 05:25:58;;;;;;;54.45;15.88;;;;;;;;;;4995776;28;20463;-89
2022/12/02 05:28:26;;;;;;;45.75;14.93;;;;;;;;;;4994098;28;20097;-88
2022/12/02 05:30:54;;;;;;;39.03;13.50;;;;;;;;;;5024860;28;20057;-88
2022/12/02 05:33:46;;;;;;;45.58;14.10;;;;;;;;;;5011440;28;20048;-88
2022/12/02 05:36:14;;;;;;;42.20;14.02;;;;;;;;;;5025461;28;20056;-89
2022/12/02 05:38:44;;;;;;;42.95;14.65;;;;;;;;;;5026381;28;20041;-88
2022/12/02 05:41:16;;;;;;;41.05;13.75;;;;;;;;;;4988893;28;20050;-89
2022/12/02 05:43:44;;;;;;;43.38;15.18;;;;;;;;;;4992661;28;20554;-89
2022/12/02 05:46:22;;;;;;;41.38;13.80;;;;;;;;;;4994899;28;20495;-88
2022/12/02 05:48:50;;;;;;;45.53;14.73;;;;;;;;;;4978019;28;20136;-88
2022/12/02 05:51:22;;;;;;;39.33;13.30;;;;;;;;;;4993670;28;20121;-89
2022/12/02 05:54:18;;;;;;;46.70;14.75;;;;;;;;;;5008586;28;20076;-89
2022/12/02 05:57:12;;;;;;;41.15;15.25;;;;;;;;;;4999240;28;20082;-89
2022/12/02 05:59:45;;;;;;;43.65;14.60;;;;;;;;;;5010926;28;20201;-89
2022/12/02 06:02:34;;;;;;;41.88;14.32;;;;;;;;;;4977725;28;20113;-89
2022/12/02 06:05:16;;;;;;;42.38;13.00;;;;;;;;;;4978819;28;20121;-89
2022/12/02 06:08:00;;;;;;;42.38;14.30;;;;;;;;;;4994621;28;20042;-88
2022/12/02 06:10:32;;;;;;;38.47;13.13;;;;;;;;;;4989387;28;20064;-89
2022/12/02 06:13:13;;;;;;;42.03;15.10;;;;;;;;;;5005801;28;20058;-89
2022/12/02 06:15:42;;;;;;;38.03;13.45;;;;;;;;;;5007951;28;20531;-88
2022/12/02 06:18:26;;;;;;;36.75;11.82;;;;;;;;;;5010544;28;20065;-88
2022/12/02 06:21:22;;;;;;;34.65;11.98;;;;;;;;;;4993818;28;20045;-88
2022/12/02 06:23:52;;;;;;;46.78;13.80;;;;;;;;;;4998531;28;20050;-88
2022/12/02 06:26:21;;;;;;;38.92;14.50;;;;;;;;;;4992910;28;20138;-89
2022/12/02 06:29:02;;;;;;;37.33;12.57;;;;;;;;;;4977970;28;20060;-89
2022/12/02 06:31:38;;;;;;;42.65;14.85;;;;;;;;;;4986395;28;20053;-89
2022/12/02 06:40:32;;;;;;;39.10;13.30;;;;;;;;;;4991280;28;20057;-89
2022/12/02 06:43:06;;;;;;;37.47;14.75;;;;;;;;;;5005860;28;20068;-88
2022/12/02 06:45:34;;;;;;;36.72;13.32;;;;;;;;;;4990323;28;20137;-88
2022/12/02 06:48:23;;;;;;;42.22;13.45;;;;;;;;;;5007644;28;20054;-89
2022/12/02 06:50:55;;;;;;;40.28;12.95;;;;;;;;;;5010430;28;20522;-88
2022/12/02 06:53:32;;;;;;;43.47;14.30;;;;;;;;;;4992490;28;20149;-88
2022/12/02 06:56:13;;;;;;;42.80;14.88;;;;;;;;;;4990127;28;20054;-88
2022/12/02 06:58:46;;;;;;;38.72;13.93;;;;;;;;;;5007793;28;20058;-88
2022/12/02 07:01:37;;;;;;;41.33;14.23;;;;;;;;;;4972776;28;20383;-89
2022/12/02 07:04:08;;;;;;;41.38;14.63;;;;;;;;;;5021595;28;20058;-89
2022/12/02 07:06:41;;;;;;;36.45;13.45;;;;;;;;;;4987251;28;20128;-88
2022/12/02 07:09:25;;;;;;;46.15;14.75;;;;;;;;;;4991000;28;20115;-88
2022/12/02 07:11:53;;;;;;;43.35;14.35;;;;;;;;;;5023138;28;20062;-88
2022/12/02 07:14:48;;;;;;;40.50;13.50;;;;;;;;;;4960591;28;20053;-88
2022/12/02 07:17:28;;;;;;;37.53;13.30;;;;;;;;;;5004833;28;20057;-88
2022/12/02 07:20:05;;;;;;;42.35;14.82;;;;;;;;;;4990398;28;20063;-89
2022/12/02 07:23:01;;;;;;;41.88;13.57;;;;;;;;;;5024354;28;20050;-88
2022/12/02 07:25:59;;;;;;;42.63;13.40;;;;;;;;;;5007852;28;20574;-88
2022/12/02 07:28:57;;;;;;;34.47;11.80;;;;;;;;;;5005725;28;20454;-88
2022/12/02 07:31:43;;;;;;;42.15;13.60;;;;;;;;;;4988245;28;20050;-88
2022/12/02 07:34:12;;;;;;;37.95;13.68;;;;;;;;;;4989462;28;20422;-88
2022/12/02 07:36:40;;;;;;;38.75;12.73;;;;;;;;;;5007942;28;20088;-88
2022/12/02 07:39:08;;;;;;;44.83;14.18;;;;;;;;;;5005065;28;20054;-88
2022/12/02 07:41:40;;;;;;;43.42;13.88;;;;;;;;;;4958867;28;20579;-88
2022/12/02 07:44:32;;;;;;;43.35;14.38;;;;;;;;;;5008464;28;20052;-89
2022/12/02 07:47:24;;;;;;;36.83;13.10;;;;;;;;;;4992868;28;20033;-88
2022/12/02 07:50:16;;;;;;;48.92;14.50;;;;;;;;;;5006573;28;20049;-88
2022/12/02 07:52:50;;;;;;;37.65;13.77;;;;;;;;;;4992676;28;20046;-89
2022/12/02 07:55:18;;;;;;;46.10;14.10;;;;;;;;;;4998955;28;20457;-88
2022/12/02 07:57:58;;;;;;;41.03;13.70;;;;;;;;;;5006044;28;20070;-88
2022/12/02 08:00:50;;;;;;;43.22;13.60;;;;;;;;;;5009112;28;20057;-88
2022/12/02 08:03:18;;;;;;;44.38;15.20;;;;;;;;;;5007062;28;20053;-88
2022/12/02 08:05:46;;;;;;;41.45;13.45;;;;;;;;;;4991232;28;20141;-88
2022/12/02 08:08:14;;;;;;;38.28;14.23;;;;;;;;;;5007885;28;20518;-88
2022/12/02 08:11:12;;;;;;;39.55;13.80;;;;;;;;;;5008185;28;20046;-88
2022/12/02 08:13:44;;;;;;;42.03;14.25;;;;;;;;;;5009824;28;20045;-88
2022/12/02 08:16:12;;;;;;;39.10;14.30;;;;;;;;;;5007609;28;20052;-88
2022/12/02 08:18:40;;;;;;;40.90;13.90;;;;;;;;;;5005006;28;20140;-88
2022/12/02 08:21:08;;;;;;;47.00;15.18;;;;;;;;;;5005053;28;20054;-88
2022/12/02 08:24:00;;;;;;;45.45;15.90;;;;;;;;;;5006640;28;20404;-88
2022/12/02 08:29:27;;;;;;;32.83;12.00;;;;;;;;;;5006417;28;20074;-88
2022/12/02 08:31:56;;;;;;;39.78;14.40;;;;;;;;;;5008286;28;20149;-88
2022/12/02 08:34:24;;;;;;;44.72;13.95;;;;;;;;;;4987351;28;20053;-88
2022/12/02 08:37:16;;;;;;;42.83;13.63;;;;;;;;;;4972978;28;20046;-88
2022/12/02 08:39:48;;;;;;;44.22;14.77;;;;;;;;;;5005327;28;20054;-88
2022/12/02 08:42:16;;;;;;;47.03;15.30;;;;;;;;;;4990937;28;20893;-88
2022/12/02 08:44:44;;;;;;;43.33;14.30;;;;;;;;;;4998681;28;20136;-88
2022/12/02 08:47:12;;;;;;;47.25;14.25;;;;;;;;;;4988943;28;20054;-88
2022/12/02 08:49:40;;;;;;;41.85;14.57;;;;;;;;;;5008364;28;20108;-88
2022/12/02 08:52:08;;;;;;;49.17;16.77;;;;;;;;;;4996967;28;20073;-88
2022/12/02 08:54:36;;;;;;;39.45;13.68;;;;;;;;;;5009304;28;20050;-88
2022/12/02 08:57:08;;;;;;;45.60;15.02;;;;;;;;;;5010327;28;20053;-88
2022/12/02 08:59:36;;;;;;;47.25;14.10;;;;;;;;;;4995456;28;20073;-88
2022/12/02 09:05:00;;;;;;;46.70;15.45;;;;;;;;;;4991109;28;20404;-88
2022/12/02 09:07:28;;;;;;;47.63;15.98;;;;;;;;;;4994757;28;20112;-88
2022/12/02 09:09:56;;;;;;;53.28;16.40;;;;;;;;;;5011350;28;20049;-88
2022/12/02 09:12:28;;;;;;;46.58;16.40;;;;;;;;;;5025452;28;20376;-88
2022/12/02 09:14:56;;;;;;;47.50;15.80;;;;;;;;;;5026770;28;20108;-88
2022/12/02 09:17:28;;;;;;;49.97;15.57;;;;;;;;;;4991690;28;20052;-88
2022/12/02 09:20:00;;;;;;;46.28;16.40;;;;;;;;;;5008151;28;20407;-88
2022/12/02 09:22:28;;;;;;;46.70;15.15;;;;;;;;;;4977756;28;20058;-88
2022/12/02 09:24:56;;;;;;;44.08;15.15;;;;;;;;;;5010764;28;20112;-88
2022/12/02 09:27:24;;;;;;;45.47;15.75;;;;;;;;;;5024138;28;20050;-88
2022/12/02 09:29:52;;;;;;;46.47;16.48;;;;;;;;;;4978561;28;20058;-88
2022/12/02 09:32:20;;;;;;;49.85;14.57;;;;;;;;;;5008348;28;20053;-88
2022/12/02 09:35:14;;;;;;;46.90;15.07;;;;;;;;;;5010797;28;20038;-88
2022/12/02 09:37:42;;;;;;;52.13;17.10;;;;;;;;;;5024330;28;20491;-87
2022/12/02 09:40:10;;;;;;;45.33;14.45;;;;;;;;;;5003488;28;20050;-88
2022/12/02 09:42:38;;;;;;;48.30;16.13;;;;;;;;;;5008815;28;20052;-87
2022/12/02 09:45:12;;;;;;;49.33;15.93;;;;;;;;;;5003563;28;20049;-87
2022/12/02 09:47:40;;;;;;;47.80;14.75;;;;;;;;;;4976691;28;20077;-87
2022/12/02 09:50:11;;;;;;;32.88;11.93;;;;;;;;;;5006325;28;20511;-87
2022/12/02 09:52:40;;;;;;;54.25;16.70;;;;;;;;;;4989270;28;20070;-87
2022/12/02 09:55:16;;;;;;;56.35;15.93;;;;;;;;;;4976063;28;20042;-87
2022/12/02 09:57:45;;;;;;;52.35;16.30;;;;;;;;;;4993329;28;20567;-88
2022/12/02 10:00:21;;;;;;;46.05;15.02;;;;;;;;;;4977018;28;20054;-88
2022/12/02 10:03:16;;;;;;;50.03;15.32;;;;;;;;;;4996354;28;20069;-87
2022/12/02 10:05:46;;;;;;;47.83;15.40;;;;;;;;;;5007830;28;20562;-87
2022/12/02 10:08:26;;;;;;;47.22;16.15;;;;;;;;;;5020755;28;20115;-86
2022/12/02 10:10:55;;;;;;;53.65;15.30;;;;;;;;;;5024794;28;20086;-86
2022/12/02 10:13:24;;;;;;;46.25;14.70;;;;;;;;;;4991998;28;20042;-86
2022/12/02 10:16:17;;;;;;;46.55;15.98;;;;;;;;;;5008201;28;20105;-86
2022/12/02 10:18:45;;;;;;;52.33;15.90;;;;;;;;;;5009648;28;20046;-87
2022/12/02 10:21:18;;;;;;;50.78;16.33;;;;;;;;;;5006774;28;20085;-87
2022/12/02 10:23:54;;;;;;;53.00;16.23;;;;;;;;;;5011068;28;20061;-87
2022/12/02 10:26:22;;;;;;;47.47;15.38;;;;;;;;;;5010145;28;20470;-87
2022/12/02 10:29:06;;;;;;;44.30;15.05;;;;;;;;;;4993398;28;20046;-87
2022/12/02 10:31:34;;;;;;;44.00;14.88;;;;;;;;;;4991286;28;20127;-87
2022/12/02 10:34:27;;;;;;;44.72;14.50;;;;;;;;;;5009989;28;20116;-88
2022/12/02 10:37:13;;;;;;;46.22;14.45;;;;;;;;;;4977135;28;20081;-88
2022/12/02 10:39:40;;;;;;;45.50;15.88;;;;;;;;;;5024294;28;20050;-88
2022/12/02 10:42:20;;;;;;;40.35;14.45;;;;;;;;;;5009127;28;20120;-87
2022/12/02 10:45:08;;;;;;;50.08;17.55;;;;;;;;;;5010135;28;20042;-87
2022/12/02 10:47:36;;;;;;;44.83;15.45;;;;;;;;;;5007896;28;20042;-87
2022/12/02 10:50:20;;;;;;;42.67;12.50;;;;;;;;;;5008062;28;20157;-87
2022/12/02 10:53:12;;;;;;;52.72;16.35;;;;;;;;;;5001070;28;20431;-87
2022/12/02 10:55:40;;;;;;;46.17;15.18;;;;;;;;;;5008552;28;20042;-87
2022/12/02 10:58:14;;;;;;;47.45;15.38;;;;;;;;;;4992804;28;20502;-86
2022/12/02 11:00:42;;;;;;;53.03;16.23;;;;;;;;;;5008758;28;20050;-86
2022/12/02 11:03:12;;;;;;;52.00;16.23;;;;;;;;;;4992948;28;20057;-87
2022/12/02 11:05:40;;;;;;;46.53;15.95;;;;;;;;;;5009459;28;20057;-87
2022/12/02 11:08:22;;;;;;;55.47;18.02;;;;;;;;;;5010570;28;20045;-87
2022/12/02 11:11:09;;;;;;;48.58;16.23;;;;;;;;;;4990569;28;20050;-86
2022/12/02 11:13:57;;;;;;;46.95;14.98;;;;;;;;;;5010019;28;20053;-88
2022/12/02 11:16:26;;;;;;;55.20;16.80;;;;;;;;;;5006317;28;20092;-88
2022/12/02 11:19:25;;;;;;;46.38;14.80;;;;;;;;;;4987384;28;20068;-88
2022/12/02 11:22:46;;;;;;;47.85;15.43;;;;;;;;;;5006616;28;20196;-89
2022/12/02 11:25:42;;;;;;;48.22;15.38;;;;;;;;;;4990537;28;20053;-87
2022/12/02 11:28:28;;;;;;;48.58;16.65;;;;;;;;;;5005358;28;20047;-88
2022/12/02 11:31:04;;;;;;;;;;;;;;;;;;5006269;28;20057;-87
2022/12/02 11:33:50;;;;;;;43.65;14.13;;;;;;;;;;4984656;28;20047;-87
2022/12/02 11:36:24;;;;;;;54.33;15.55;;;;;;;;;;4998247;28;20062;-87
2022/12/02 11:38:52;;;;;;;38.38;14.00;;;;;;;;;;4983822;28;20049;-87
2022/12/02 11:44:40;;;;;;;53.00;15.45;;;;;;;;;;5006712;28;20049;-87
2022/12/02 11:47:32;;;;;;;39.97;13.82;;;;;;;;;;5006154;28;20089;-87
2022/12/02 11:50:20;;;;;;;46.53;14.35;;;;;;;;;;5006195;28;20089;-86
2022/12/02 11:52:56;;;;;;;40.95;13.57;;;;;;;;;;4987301;28;20050;-87
2022/12/02 11:55:29;;;;;;;42.88;14.27;;;;;;;;;;5004322;28;20046;-86
2022/12/02 11:57:58;;;;;;;45.97;15.93;;;;;;;;;;5005314;28;20052;-86
2022/12/02 12:00:34;;;;;;;47.28;15.32;;;;;;;;;;5004402;28;20050;-86
2022/12/02 12:03:18;;;;;;;45.92;15.70;;;;;;;;;;4984244;28;20077;-85
2022/12/02 12:06:07;;;;;;;49.28;14.25;;;;;;;;;;4985046;28;20488;-86
2022/12/02 12:08:51;;;;;;;42.83;14.57;;;;;;;;;;4972576;28;20484;-85
2022/12/02 12:11:36;;;;;;;33.05;12.00;;;;;;;;;;5006226;28;20049;-84
2022/12/02 12:14:11;;;;;;;46.70;15.38;;;;;;;;;;5003825;28;20462;-86
2022/12/02 12:16:47;;;;;;;42.90;14.00;;;;;;;;;;4984144;28;20124;-86
2022/12/02 12:19:14;;;;;;;52.00;15.20;;;;;;;;;;5020775;28;20054;-86
2022/12/02 12:21:51;;;;;;;43.60;13.60;;;;;;;;;;5006685;28;20144;-86
2022/12/02 12:24:22;;;;;;;46.50;14.00;;;;;;;;;;5006120;28;20475;-86
2022/12/02 12:27:04;;;;;;;45.10;16.35;;;;;;;;;;4987892;28;20062;-86
2022/12/02 12:29:33;;;;;;;40.28;13.68;;;;;;;;;;4990670;28;20132;-88
2022/12/02 12:32:03;;;;;;;45.97;14.98;;;;;;;;;;4988059;28;20116;-85
2022/12/02 12:34:30;;;;;;;39.70;13.60;;;;;;;;;;5001996;28;20053;-86
2022/12/02 12:37:22;;;;;;;41.63;13.82;;;;;;;;;;5006501;28;21225;-85
2022/12/02 12:39:54;;;;;;;39.70;13.93;;;;;;;;;;4971524;28;20064;-85
2022/12/02 12:42:22;;;;;;;43.67;14.40;;;;;;;;;;5006981;28;20050;-87
2022/12/02 12:44:51;;;;;;;46.88;14.75;;;;;;;;;;5004801;28;20415;-87
2022/12/02 12:47:24;;;;;;;43.80;15.13;;;;;;;;;;4989102;28;20057;-88
2022/12/02 12:49:57;;;;;;;44.38;14.25;;;;;;;;;;5006678;28;20111;-88
2022/12/02 12:52:24;;;;;;;44.35;14.40;;;;;;;;;;4983415;28;20053;-88
2022/12/02 12:54:52;;;;;;;35.33;13.10;;;;;;;;;;5009248;28;20050;-89
2022/12/02 12:57:20;;;;;;;50.08;14.30;;;;;;;;;;4990850;28;20424;-89
2022/12/02 12:59:48;;;;;;;39.83;13.95;;;;;;;;;;4973513;28;20092;-88
2022/12/02 13:02:16;;;;;;;37.85;12.45;;;;;;;;;;5006707;28;20050;-89
2022/12/02 13:04:44;;;;;;;41.10;12.50;;;;;;;;;;5013545;28;20084;-88
2022/12/02 13:07:20;;;;;;;47.60;15.05;;;;;;;;;;4994128;28;20056;-88
2022/12/02 13:10:14;;;;;;;45.42;14.80;;;;;;;;;;5008178;28;20046;-87
2022/12/02 13:12:48;;;;;;;33.25;11.93;;;;;;;;;;4989654;28;20061;-88
2022/12/02 13:15:16;;;;;;;20.52;8.05;;;;;;;;;;4999846;28;20108;-87
2022/12/02 13:17:44;;;;;;;37.72;12.15;;;;;;;;;;5006561;28;20488;-87
2022/12/02 13:20:16;;;;;;;38.33;13.80;;;;;;;;;;5006341;28;20058;-87
2022/12/02 13:23:10;;;;;;;38.63;12.38;;;;;;;;;;4990634;28;20104;-88
2022/12/02 13:25:42;;;;;;;37.78;11.90;;;;;;;;;;5008297;28;20046;-89
2022/12/02 13:28:15;;;;;;;36.78;13.57;;;;;;;;;;5022180;28;20384;-88
2022/12/02 13:30:42;;;;;;;24.67;9.80;;;;;;;;;;4973821;28;20060;-88
2022/12/02 13:33:10;;;;;;;38.10;12.93;;;;;;;;;;4989648;28;20129;-88
2022/12/02 13:35:38;;;;;;;30.75;10.90;;;;;;;;;;5006597;28;20499;-88
2022/12/02 13:38:06;;;;;;;34.03;11.57;;;;;;;;;;4986105;28;20050;-89
2022/12/02 13:40:34;;;;;;;37.45;12.65;;;;;;;;;;4972637;28;20044;-87
2022/12/02 13:43:28;;;;;;;28.98;11.23;;;;;;;;;;5003185;28;20062;-88
2022/12/02 13:46:20;;;;;;;33.70;12.82;;;;;;;;;;5007346;28;20121;-88
2022/12/02 13:49:12;;;;;;;36.30;12.43;;;;;;;;;;5009712;28;20562;-87
2022/12/02 13:52:04;;;;;;;44.35;12.90;;;;;;;;;;4995400;28;20041;-88
2022/12/02 13:54:56;;;;;;;29.23;11.18;;;;;;;;;;5025208;28;20042;-88
2022/12/02 13:57:28;;;;;;;35.40;11.30;;;;;;;;;;5009689;28;20057;-88
2022/12/02 13:59:56;;;;;;;34.67;11.55;;;;;;;;;;5007280;28;20081;-86
2022/12/02 14:02:24;;;;;;;30.70;10.25;;;;;;;;;;5008335;28;20061;-89
2022/12/02 14:04:52;;;;;;;32.13;11.38;;;;;;;;;;4999245;28;20064;-87
2022/12/02 14:07:26;;;;;;;36.55;12.57;;;;;;;;;;5008163;28;20041;-88
2022/12/02 14:09:54;;;;;;;29.10;11.32;;;;;;;;;;4998896;28;20042;-89
2022/12/02 14:12:46;;;;;;;34.92;11.30;;;;;;;;;;4977008;28;20185;-88
2022/12/02 14:15:14;;;;;;;34.25;11.75;;;;;;;;;;5006575;28;20053;-89
2022/12/02 14:17:42;;;;;;;35.20;11.48;;;;;;;;;;5007986;28;20053;-88
2022/12/02 14:20:34;;;;;;;35.67;11.65;;;;;;;;;;5008800;28;20049;-89
2022/12/02 14:23:02;;;;;;;37.28;11.18;;;;;;;;;;5006667;28;20065;-89
2022/12/02 14:25:30;;;;;;;38.30;12.55;;;;;;;;;;4992952;28;20876;-89
2022/12/02 14:27:58;;;;;;;30.50;11.35;;;;;;;;;;4992268;28;20046;-88
2022/12/02 14:30:31;;;;;;;31.92;11.70;;;;;;;;;;5010629;28;20108;-88
2022/12/02 14:32:58;;;;;;;36.72;12.07;;;;;;;;;;5007167;28;20053;-87
2022/12/02 14:35:30;;;;;;;37.40;11.48;;;;;;;;;;4992407;28;20054;-87
2022/12/02 14:37:58;;;;;;;34.00;13.15;;;;;;;;;;5010765;28;20049;-87
2022/12/02 14:40:27;;;;;;;34.70;13.10;;;;;;;;;;5008788;28;20049;-86
2022/12/02 14:43:00;;;;;;;38.80;12.48;;;;;;;;;;5008819;28;20046;-87
2022/12/02 14:45:28;;;;;;;33.50;11.82;;;;;;;;;;4990902;28;20049;-90
2022/12/02 14:48:20;;;;;;;33.45;11.85;;;;;;;;;;4978257;28;20044;-87
2022/12/02 14:51:20;;;;;;;35.78;11.85;;;;;;;;;;4990334;28;20081;-87
2022/12/02 14:53:48;;;;;;;31.27;10.73;;;;;;;;;;5005325;28;20049;-87
2022/12/02 14:56:22;;;;;;;33.67;12.95;;;;;;;;;;5007960;28;20052;-87
2022/12/02 14:58:50;;;;;;;32.47;11.52;;;;;;;;;;5008525;28;20038;-87
2022/12/02 15:01:22;;;;;;;32.90;12.32;;;;;;;;;;4990887;28;20909;-87
2022/12/02 15:03:55;;;;;;;34.42;12.18;;;;;;;;;;4990813;28;20104;-87
2022/12/02 15:06:22;;;;;;;33.22;11.65;;;;;;;;;;4990869;28;20052;-87
2022/12/02 15:08:50;;;;;;;36.97;12.45;;;;;;;;;;5006049;28;20416;-87
2022/12/02 15:11:18;;;;;;;31.20;12.43;;;;;;;;;;4991309;28;20046;-87
2022/12/02 15:13:50;;;;;;;35.10;12.38;;;;;;;;;;5008225;28;20088;-87
2022/12/02 15:16:18;;;;;;;31.15;11.35;;;;;;;;;;5007548;28;20046;-87
2022/12/02 15:18:46;;;;;;;39.53;12.50;;;;;;;;;;5009649;28;20053;-87
2022/12/02 15:21:38;;;;;;;36.25;12.63;;;;;;;;;;5006928;28;20052;-87
2022/12/02 15:24:06;;;;;;;32.53;11.35;;;;;;;;;;5007641;28;20726;-88
2022/12/02 15:26:34;;;;;;;29.40;11.55;;;;;;;;;;4984890;28;20062;-88
2022/12/02 15:29:02;;;;;;;37.42;12.30;;;;;;;;;;5007677;28;20052;-87